sensor_id;sensor_type;location;lat;lon;timestamp;P1;durP1;ratioP1;P2;durP2;ratioP2
33327;SDS011;19692;52.998;9.116;2023-02-15T00:01:31;179.07;;;29.30;;
33327;SDS011;19692;52.998;9.116;2023-02-15T00:03:58;228.87;;;29.57;;
33327;SDS011;19692;52.998;9.116;2023-02-15T00:06:24;155.93;;;28.87;;
33327;SDS011;19692;52.998;9.116;2023-02-15T00:08:50;266.53;;;32.87;;
33327;SDS011;19692;52.998;9.116;2023-02-15T00:11:17;147.57;;;28.23;;
33327;SDS011;19692;52.998;9.116;2023-02-15T00:14:25;155.03;;;28.93;;
33327;SDS011;19692;52.998;9.116;2023-02-15T00:16:50;133.43;;;28.40;;
33327;SDS011;19692;52.998;9.116;2023-02-15T00:19:18;68.17;;;21.43;;
33327;SDS011;19692;52.998;9.116;2023-02-15T00:21:45;117.73;;;24.83;;
33327;SDS011;19692;52.998;9.116;2023-02-15T00:24:13;194.70;;;28.77;;
33327;SDS011;19692;52.998;9.116;2023-02-15T00:26:40;143.77;;;28.00;;
33327;SDS011;19692;52.998;9.116;2023-02-15T00:29:10;92.30;;;25.80;;
33327;SDS011;19692;52.998;9.116;2023-02-15T00:31:37;196.73;;;29.63;;
33327;SDS011;19692;52.998;9.116;2023-02-15T00:36:34;172.80;;;28.63;;
33327;SDS011;19692;52.998;9.116;2023-02-15T00:39:00;161.90;;;28.97;;
33327;SDS011;19692;52.998;9.116;2023-02-15T00:41:26;172.70;;;26.90;;
33327;SDS011;19692;52.998;9.116;2023-02-15T00:43:52;119.70;;;26.97;;
33327;SDS011;19692;52.998;9.116;2023-02-15T00:46:17;176.63;;;28.17;;
33327;SDS011;19692;52.998;9.116;2023-02-15T00:48:43;113.47;;;26.80;;
33327;SDS011;19692;52.998;9.116;2023-02-15T00:51:09;155.30;;;27.70;;
33327;SDS011;19692;52.998;9.116;2023-02-15T00:53:34;159.00;;;29.27;;
33327;SDS011;19692;52.998;9.116;2023-02-15T00:56:00;151.73;;;27.93;;
33327;SDS011;19692;52.998;9.116;2023-02-15T00:58:26;187.67;;;29.77;;
33327;SDS011;19692;52.998;9.116;2023-02-15T01:00:52;138.80;;;27.33;;
33327;SDS011;19692;52.998;9.116;2023-02-15T01:03:19;135.33;;;27.13;;
33327;SDS011;19692;52.998;9.116;2023-02-15T01:05:46;149.50;;;28.40;;
33327;SDS011;19692;52.998;9.116;2023-02-15T01:08:14;126.40;;;26.60;;
33327;SDS011;19692;52.998;9.116;2023-02-15T01:10:40;161.90;;;29.20;;
33327;SDS011;19692;52.998;9.116;2023-02-15T01:13:06;218.70;;;27.33;;
33327;SDS011;19692;52.998;9.116;2023-02-15T01:15:33;163.83;;;26.23;;
33327;SDS011;19692;52.998;9.116;2023-02-15T01:18:00;157.40;;;26.33;;
33327;SDS011;19692;52.998;9.116;2023-02-15T01:20:27;122.47;;;24.83;;
33327;SDS011;19692;52.998;9.116;2023-02-15T01:22:54;168.43;;;25.43;;
33327;SDS011;19692;52.998;9.116;2023-02-15T01:25:21;114.70;;;25.10;;
33327;SDS011;19692;52.998;9.116;2023-02-15T01:27:49;170.53;;;26.77;;
33327;SDS011;19692;52.998;9.116;2023-02-15T01:30:15;115.80;;;23.60;;
33327;SDS011;19692;52.998;9.116;2023-02-15T01:32:41;153.63;;;25.43;;
33327;SDS011;19692;52.998;9.116;2023-02-15T01:35:08;161.87;;;26.67;;
33327;SDS011;19692;52.998;9.116;2023-02-15T01:37:35;105.63;;;25.63;;
33327;SDS011;19692;52.998;9.116;2023-02-15T01:40:05;125.27;;;25.20;;
33327;SDS011;19692;52.998;9.116;2023-02-15T01:42:34;187.37;;;27.23;;
33327;SDS011;19692;52.998;9.116;2023-02-15T01:45:01;162.83;;;27.77;;
33327;SDS011;19692;52.998;9.116;2023-02-15T01:50:44;99.73;;;23.90;;
33327;SDS011;19692;52.998;9.116;2023-02-15T01:53:21;144.73;;;25.40;;
33327;SDS011;19692;52.998;9.116;2023-02-15T01:55:57;210.13;;;27.27;;
33327;SDS011;19692;52.998;9.116;2023-02-15T01:58:36;115.33;;;25.63;;
33327;SDS011;19692;52.998;9.116;2023-02-15T02:01:02;205.07;;;28.57;;
33327;SDS011;19692;52.998;9.116;2023-02-15T02:03:38;125.23;;;24.57;;
33327;SDS011;19692;52.998;9.116;2023-02-15T02:06:34;164.53;;;25.17;;
33327;SDS011;19692;52.998;9.116;2023-02-15T02:09:02;176.53;;;26.97;;
33327;SDS011;19692;52.998;9.116;2023-02-15T02:11:28;199.20;;;26.57;;
33327;SDS011;19692;52.998;9.116;2023-02-15T02:13:54;142.67;;;25.13;;
33327;SDS011;19692;52.998;9.116;2023-02-15T02:23:13;156.43;;;23.37;;
33327;SDS011;19692;52.998;9.116;2023-02-15T02:38:00;131.20;;;24.43;;
33327;SDS011;19692;52.998;9.116;2023-02-15T02:40:41;159.13;;;24.33;;
33327;SDS011;19692;52.998;9.116;2023-02-15T02:43:22;126.63;;;23.07;;
33327;SDS011;19692;52.998;9.116;2023-02-15T02:46:08;212.97;;;27.60;;
33327;SDS011;19692;52.998;9.116;2023-02-15T02:48:43;250.23;;;29.90;;
33327;SDS011;19692;52.998;9.116;2023-02-15T02:51:09;185.53;;;25.53;;
33327;SDS011;19692;52.998;9.116;2023-02-15T02:53:35;113.70;;;22.63;;
33327;SDS011;19692;52.998;9.116;2023-02-15T02:56:13;232.73;;;26.87;;
33327;SDS011;19692;52.998;9.116;2023-02-15T02:59:09;193.80;;;25.43;;
33327;SDS011;19692;52.998;9.116;2023-02-15T03:01:55;162.73;;;22.13;;
33327;SDS011;19692;52.998;9.116;2023-02-15T03:04:35;118.23;;;19.63;;
33327;SDS011;19692;52.998;9.116;2023-02-15T03:07:05;166.80;;;23.53;;
33327;SDS011;19692;52.998;9.116;2023-02-15T03:09:38;157.60;;;21.50;;
33327;SDS011;19692;52.998;9.116;2023-02-15T03:12:11;127.67;;;22.93;;
33327;SDS011;19692;52.998;9.116;2023-02-15T03:14:51;143.00;;;21.77;;
33327;SDS011;19692;52.998;9.116;2023-02-15T03:17:22;91.03;;;19.17;;
33327;SDS011;19692;52.998;9.116;2023-02-15T03:19:51;93.83;;;21.57;;
33327;SDS011;19692;52.998;9.116;2023-02-15T03:22:25;114.67;;;24.90;;
33327;SDS011;19692;52.998;9.116;2023-02-15T03:27:37;94.77;;;22.23;;
33327;SDS011;19692;52.998;9.116;2023-02-15T03:30:08;147.77;;;21.80;;
33327;SDS011;19692;52.998;9.116;2023-02-15T03:32:37;161.23;;;24.77;;
33327;SDS011;19692;52.998;9.116;2023-02-15T03:35:05;140.67;;;20.90;;
33327;SDS011;19692;52.998;9.116;2023-02-15T03:37:39;122.33;;;22.20;;
33327;SDS011;19692;52.998;9.116;2023-02-15T03:40:19;154.07;;;22.93;;
33327;SDS011;19692;52.998;9.116;2023-02-15T03:43:23;114.80;;;20.73;;
33327;SDS011;19692;52.998;9.116;2023-02-15T03:46:06;192.97;;;22.90;;
33327;SDS011;19692;52.998;9.116;2023-02-15T03:49:09;174.90;;;24.67;;
33327;SDS011;19692;52.998;9.116;2023-02-15T03:51:42;188.20;;;23.90;;
33327;SDS011;19692;52.998;9.116;2023-02-15T03:54:15;192.57;;;25.63;;
33327;SDS011;19692;52.998;9.116;2023-02-15T04:00:21;164.17;;;23.13;;
33327;SDS011;19692;52.998;9.116;2023-02-15T04:05:36;143.83;;;20.63;;
33327;SDS011;19692;52.998;9.116;2023-02-15T04:08:02;160.27;;;24.23;;
33327;SDS011;19692;52.998;9.116;2023-02-15T04:10:31;105.87;;;19.47;;
33327;SDS011;19692;52.998;9.116;2023-02-15T04:13:14;132.67;;;24.77;;
33327;SDS011;19692;52.998;9.116;2023-02-15T04:15:40;138.50;;;23.30;;
33327;SDS011;19692;52.998;9.116;2023-02-15T04:18:25;108.67;;;21.77;;
33327;SDS011;19692;52.998;9.116;2023-02-15T04:21:09;136.97;;;23.20;;
33327;SDS011;19692;52.998;9.116;2023-02-15T04:23:53;174.47;;;22.30;;
33327;SDS011;19692;52.998;9.116;2023-02-15T04:26:37;134.73;;;22.83;;
33327;SDS011;19692;52.998;9.116;2023-02-15T04:29:03;82.23;;;20.60;;
33327;SDS011;19692;52.998;9.116;2023-02-15T04:31:28;108.97;;;23.23;;
33327;SDS011;19692;52.998;9.116;2023-02-15T04:33:54;129.10;;;21.47;;
33327;SDS011;19692;52.998;9.116;2023-02-15T04:36:21;171.10;;;22.60;;
33327;SDS011;19692;52.998;9.116;2023-02-15T04:38:47;218.63;;;27.83;;
33327;SDS011;19692;52.998;9.116;2023-02-15T04:41:15;183.50;;;24.50;;
33327;SDS011;19692;52.998;9.116;2023-02-15T04:43:40;171.33;;;25.10;;
33327;SDS011;19692;52.998;9.116;2023-02-15T04:46:06;123.90;;;22.37;;
33327;SDS011;19692;52.998;9.116;2023-02-15T04:48:32;161.07;;;24.30;;
33327;SDS011;19692;52.998;9.116;2023-02-15T04:50:58;140.40;;;22.57;;
33327;SDS011;19692;52.998;9.116;2023-02-15T04:53:23;91.93;;;20.40;;
33327;SDS011;19692;52.998;9.116;2023-02-15T04:55:49;121.17;;;24.53;;
33327;SDS011;19692;52.998;9.116;2023-02-15T04:58:15;128.33;;;21.93;;
33327;SDS011;19692;52.998;9.116;2023-02-15T05:00:40;117.60;;;22.33;;
33327;SDS011;19692;52.998;9.116;2023-02-15T05:03:06;214.93;;;27.93;;
33327;SDS011;19692;52.998;9.116;2023-02-15T05:05:32;138.00;;;27.83;;
33327;SDS011;19692;52.998;9.116;2023-02-15T05:07:58;134.40;;;23.00;;
33327;SDS011;19692;52.998;9.116;2023-02-15T05:10:23;195.40;;;29.30;;
33327;SDS011;19692;52.998;9.116;2023-02-15T05:12:49;52.83;;;20.23;;
33327;SDS011;19692;52.998;9.116;2023-02-15T05:15:15;68.70;;;20.77;;
33327;SDS011;19692;52.998;9.116;2023-02-15T05:17:40;71.53;;;21.00;;
33327;SDS011;19692;52.998;9.116;2023-02-15T05:20:06;98.80;;;20.70;;
33327;SDS011;19692;52.998;9.116;2023-02-15T05:22:33;189.73;;;24.90;;
33327;SDS011;19692;52.998;9.116;2023-02-15T05:24:58;142.83;;;22.93;;
33327;SDS011;19692;52.998;9.116;2023-02-15T05:27:42;100.17;;;19.73;;
33327;SDS011;19692;52.998;9.116;2023-02-15T05:30:26;79.17;;;19.70;;
33327;SDS011;19692;52.998;9.116;2023-02-15T05:32:52;176.33;;;25.03;;
33327;SDS011;19692;52.998;9.116;2023-02-15T05:35:18;129.40;;;20.70;;
33327;SDS011;19692;52.998;9.116;2023-02-15T05:37:44;158.30;;;22.70;;
33327;SDS011;19692;52.998;9.116;2023-02-15T05:40:10;131.83;;;18.57;;
33327;SDS011;19692;52.998;9.116;2023-02-15T05:42:36;118.67;;;20.57;;
33327;SDS011;19692;52.998;9.116;2023-02-15T05:45:02;208.00;;;24.90;;
33327;SDS011;19692;52.998;9.116;2023-02-15T05:47:28;142.87;;;21.70;;
33327;SDS011;19692;52.998;9.116;2023-02-15T05:49:54;133.73;;;18.70;;
33327;SDS011;19692;52.998;9.116;2023-02-15T05:52:20;135.83;;;19.97;;
33327;SDS011;19692;52.998;9.116;2023-02-15T05:54:46;108.23;;;20.03;;
33327;SDS011;19692;52.998;9.116;2023-02-15T05:57:12;111.23;;;19.13;;
33327;SDS011;19692;52.998;9.116;2023-02-15T05:59:38;73.77;;;18.50;;
33327;SDS011;19692;52.998;9.116;2023-02-15T06:02:03;147.17;;;20.77;;
33327;SDS011;19692;52.998;9.116;2023-02-15T06:04:31;126.87;;;19.63;;
33327;SDS011;19692;52.998;9.116;2023-02-15T06:06:57;108.93;;;19.33;;
33327;SDS011;19692;52.998;9.116;2023-02-15T06:09:22;108.00;;;18.03;;
33327;SDS011;19692;52.998;9.116;2023-02-15T06:11:48;107.63;;;18.80;;
33327;SDS011;19692;52.998;9.116;2023-02-15T06:14:14;58.63;;;17.47;;
33327;SDS011;19692;52.998;9.116;2023-02-15T06:16:40;67.23;;;18.27;;
33327;SDS011;19692;52.998;9.116;2023-02-15T06:19:05;83.73;;;19.70;;
33327;SDS011;19692;52.998;9.116;2023-02-15T06:21:31;90.73;;;18.20;;
33327;SDS011;19692;52.998;9.116;2023-02-15T06:23:57;99.00;;;18.73;;
33327;SDS011;19692;52.998;9.116;2023-02-15T06:26:25;84.93;;;17.17;;
33327;SDS011;19692;52.998;9.116;2023-02-15T06:28:51;107.03;;;17.77;;
33327;SDS011;19692;52.998;9.116;2023-02-15T06:31:17;64.10;;;15.80;;
33327;SDS011;19692;52.998;9.116;2023-02-15T06:33:42;71.87;;;17.27;;
33327;SDS011;19692;52.998;9.116;2023-02-15T06:36:08;111.90;;;19.70;;
33327;SDS011;19692;52.998;9.116;2023-02-15T06:38:34;56.47;;;16.37;;
33327;SDS011;19692;52.998;9.116;2023-02-15T06:41:00;65.27;;;15.40;;
33327;SDS011;19692;52.998;9.116;2023-02-15T06:43:25;100.57;;;16.73;;
33327;SDS011;19692;52.998;9.116;2023-02-15T06:45:51;103.13;;;17.43;;
33327;SDS011;19692;52.998;9.116;2023-02-15T06:48:17;59.57;;;17.00;;
33327;SDS011;19692;52.998;9.116;2023-02-15T06:50:43;69.10;;;17.20;;
33327;SDS011;19692;52.998;9.116;2023-02-15T06:53:08;98.33;;;22.40;;
33327;SDS011;19692;52.998;9.116;2023-02-15T06:55:34;70.20;;;25.73;;
33327;SDS011;19692;52.998;9.116;2023-02-15T06:58:00;62.33;;;24.37;;
33327;SDS011;19692;52.998;9.116;2023-02-15T07:00:26;58.37;;;18.07;;
33327;SDS011;19692;52.998;9.116;2023-02-15T07:02:55;57.77;;;16.10;;
33327;SDS011;19692;52.998;9.116;2023-02-15T07:05:23;35.93;;;17.23;;
33327;SDS011;19692;52.998;9.116;2023-02-15T07:07:49;50.93;;;16.80;;
33327;SDS011;19692;52.998;9.116;2023-02-15T07:10:15;39.23;;;18.77;;
33327;SDS011;19692;52.998;9.116;2023-02-15T07:12:41;36.10;;;18.40;;
33327;SDS011;19692;52.998;9.116;2023-02-15T07:15:08;35.27;;;15.57;;
33327;SDS011;19692;52.998;9.116;2023-02-15T07:17:38;32.23;;;14.97;;
33327;SDS011;19692;52.998;9.116;2023-02-15T07:20:09;30.13;;;14.47;;
33327;SDS011;19692;52.998;9.116;2023-02-15T07:22:41;31.67;;;14.70;;
33327;SDS011;19692;52.998;9.116;2023-02-15T07:25:08;43.83;;;15.53;;
33327;SDS011;19692;52.998;9.116;2023-02-15T07:27:36;42.37;;;15.23;;
33327;SDS011;19692;52.998;9.116;2023-02-15T07:30:03;33.23;;;15.63;;
33327;SDS011;19692;52.998;9.116;2023-02-15T07:32:30;45.87;;;16.67;;
33327;SDS011;19692;52.998;9.116;2023-02-15T07:34:57;49.97;;;16.10;;
33327;SDS011;19692;52.998;9.116;2023-02-15T07:37:24;31.73;;;16.33;;
33327;SDS011;19692;52.998;9.116;2023-02-15T07:39:50;42.03;;;15.43;;
33327;SDS011;19692;52.998;9.116;2023-02-15T07:42:16;32.57;;;16.13;;
33327;SDS011;19692;52.998;9.116;2023-02-15T07:44:42;46.27;;;15.90;;
33327;SDS011;19692;52.998;9.116;2023-02-15T07:47:08;56.03;;;17.43;;
33327;SDS011;19692;52.998;9.116;2023-02-15T07:49:34;32.10;;;17.37;;
33327;SDS011;19692;52.998;9.116;2023-02-15T07:52:03;27.67;;;15.90;;
33327;SDS011;19692;52.998;9.116;2023-02-15T07:54:29;34.33;;;17.50;;
33327;SDS011;19692;52.998;9.116;2023-02-15T07:56:55;60.23;;;17.57;;
33327;SDS011;19692;52.998;9.116;2023-02-15T07:59:21;29.53;;;16.50;;
33327;SDS011;19692;52.998;9.116;2023-02-15T08:01:47;43.53;;;17.00;;
33327;SDS011;19692;52.998;9.116;2023-02-15T08:04:12;28.57;;;15.90;;
33327;SDS011;19692;52.998;9.116;2023-02-15T08:06:38;36.27;;;16.93;;
33327;SDS011;19692;52.998;9.116;2023-02-15T08:09:08;37.23;;;17.53;;
33327;SDS011;19692;52.998;9.116;2023-02-15T08:11:35;55.20;;;18.10;;
33327;SDS011;19692;52.998;9.116;2023-02-15T08:14:03;69.67;;;19.53;;
33327;SDS011;19692;52.998;9.116;2023-02-15T08:16:48;68.23;;;19.27;;
33327;SDS011;19692;52.998;9.116;2023-02-15T08:19:21;44.90;;;19.40;;
33327;SDS011;19692;52.998;9.116;2023-02-15T08:24:27;52.47;;;18.13;;
33327;SDS011;19692;52.998;9.116;2023-02-15T08:27:04;62.97;;;19.23;;
33327;SDS011;19692;52.998;9.116;2023-02-15T08:29:32;78.50;;;18.63;;
33327;SDS011;19692;52.998;9.116;2023-02-15T08:32:00;75.33;;;20.70;;
33327;SDS011;19692;52.998;9.116;2023-02-15T08:34:31;68.87;;;18.93;;
33327;SDS011;19692;52.998;9.116;2023-02-15T08:37:00;52.43;;;18.30;;
33327;SDS011;19692;52.998;9.116;2023-02-15T08:39:26;75.43;;;19.90;;
33327;SDS011;19692;52.998;9.116;2023-02-15T08:41:52;73.90;;;20.20;;
33327;SDS011;19692;52.998;9.116;2023-02-15T08:44:18;60.93;;;21.23;;
33327;SDS011;19692;52.998;9.116;2023-02-15T08:46:46;53.13;;;20.07;;
33327;SDS011;19692;52.998;9.116;2023-02-15T08:49:15;46.53;;;24.50;;
33327;SDS011;19692;52.998;9.116;2023-02-15T08:51:47;46.70;;;22.10;;
33327;SDS011;19692;52.998;9.116;2023-02-15T08:54:15;54.67;;;22.93;;
33327;SDS011;19692;52.998;9.116;2023-02-15T08:56:44;35.23;;;21.83;;
33327;SDS011;19692;52.998;9.116;2023-02-15T08:59:17;32.63;;;22.17;;
33327;SDS011;19692;52.998;9.116;2023-02-15T09:01:48;31.27;;;20.20;;
33327;SDS011;19692;52.998;9.116;2023-02-15T09:04:16;29.63;;;20.53;;
33327;SDS011;19692;52.998;9.116;2023-02-15T09:06:43;31.20;;;22.63;;
33327;SDS011;19692;52.998;9.116;2023-02-15T09:09:11;30.00;;;21.43;;
33327;SDS011;19692;52.998;9.116;2023-02-15T09:11:38;30.07;;;22.33;;
33327;SDS011;19692;52.998;9.116;2023-02-15T09:14:11;28.10;;;20.93;;
33327;SDS011;19692;52.998;9.116;2023-02-15T09:16:43;29.23;;;20.33;;
33327;SDS011;19692;52.998;9.116;2023-02-15T09:19:13;28.73;;;21.00;;
33327;SDS011;19692;52.998;9.116;2023-02-15T09:21:40;26.97;;;20.83;;
33327;SDS011;19692;52.998;9.116;2023-02-15T09:24:07;28.67;;;20.87;;
33327;SDS011;19692;52.998;9.116;2023-02-15T09:26:36;28.53;;;22.13;;
33327;SDS011;19692;52.998;9.116;2023-02-15T09:29:08;29.43;;;20.43;;
33327;SDS011;19692;52.998;9.116;2023-02-15T09:31:40;28.10;;;20.93;;
33327;SDS011;19692;52.998;9.116;2023-02-15T09:34:12;28.97;;;21.83;;
33327;SDS011;19692;52.998;9.116;2023-02-15T09:36:41;27.20;;;20.70;;
33327;SDS011;19692;52.998;9.116;2023-02-15T09:39:22;27.37;;;20.67;;
33327;SDS011;19692;52.998;9.116;2023-02-15T09:42:04;26.40;;;19.83;;
33327;SDS011;19692;52.998;9.116;2023-02-15T09:54:12;27.67;;;19.30;;
33327;SDS011;19692;52.998;9.116;2023-02-15T09:57:16;27.20;;;20.87;;
33327;SDS011;19692;52.998;9.116;2023-02-15T10:00:20;28.27;;;21.40;;
33327;SDS011;19692;52.998;9.116;2023-02-15T10:06:13;27.03;;;21.13;;
33327;SDS011;19692;52.998;9.116;2023-02-15T10:11:38;22.07;;;19.10;;
33327;SDS011;19692;52.998;9.116;2023-02-15T10:20:56;24.27;;;20.47;;
33327;SDS011;19692;52.998;9.116;2023-02-15T10:26:56;23.13;;;18.93;;
33327;SDS011;19692;52.998;9.116;2023-02-15T10:29:43;21.67;;;18.13;;
33327;SDS011;19692;52.998;9.116;2023-02-15T10:32:39;19.57;;;17.33;;
33327;SDS011;19692;52.998;9.116;2023-02-15T10:38:17;20.73;;;18.43;;
33327;SDS011;19692;52.998;9.116;2023-02-15T10:41:23;20.33;;;17.53;;
33327;SDS011;19692;52.998;9.116;2023-02-15T10:44:05;21.57;;;17.97;;
33327;SDS011;19692;52.998;9.116;2023-02-15T10:53:20;20.93;;;17.33;;
33327;SDS011;19692;52.998;9.116;2023-02-15T10:56:07;20.30;;;16.17;;
33327;SDS011;19692;52.998;9.116;2023-02-15T11:07:35;19.20;;;16.57;;
33327;SDS011;19692;52.998;9.116;2023-02-15T11:10:18;18.90;;;15.90;;
33327;SDS011;19692;52.998;9.116;2023-02-15T11:13:14;19.70;;;16.73;;
33327;SDS011;19692;52.998;9.116;2023-02-15T11:16:01;18.30;;;16.13;;
33327;SDS011;19692;52.998;9.116;2023-02-15T11:18:37;20.63;;;17.60;;
33327;SDS011;19692;52.998;9.116;2023-02-15T11:21:33;19.83;;;17.73;;
33327;SDS011;19692;52.998;9.116;2023-02-15T11:24:08;20.17;;;17.80;;
33327;SDS011;19692;52.998;9.116;2023-02-15T11:26:50;20.53;;;18.27;;
33327;SDS011;19692;52.998;9.116;2023-02-15T11:29:32;20.17;;;17.97;;
33327;SDS011;19692;52.998;9.116;2023-02-15T11:32:02;21.83;;;18.63;;
33327;SDS011;19692;52.998;9.116;2023-02-15T11:34:53;23.03;;;18.77;;
33327;SDS011;19692;52.998;9.116;2023-02-15T11:40:15;20.93;;;18.43;;
33327;SDS011;19692;52.998;9.116;2023-02-15T11:42:54;24.07;;;18.20;;
33327;SDS011;19692;52.998;9.116;2023-02-15T11:45:29;21.07;;;18.50;;
33327;SDS011;19692;52.998;9.116;2023-02-15T11:47:59;22.43;;;18.47;;
33327;SDS011;19692;52.998;9.116;2023-02-15T11:50:28;22.10;;;18.60;;
33327;SDS011;19692;52.998;9.116;2023-02-15T11:52:58;20.53;;;17.60;;
33327;SDS011;19692;52.998;9.116;2023-02-15T11:55:51;21.50;;;18.77;;
33327;SDS011;19692;52.998;9.116;2023-02-15T11:58:22;20.33;;;17.77;;
33327;SDS011;19692;52.998;9.116;2023-02-15T12:01:17;20.73;;;18.43;;
33327;SDS011;19692;52.998;9.116;2023-02-15T12:03:54;21.30;;;19.00;;
33327;SDS011;19692;52.998;9.116;2023-02-15T12:06:33;23.03;;;19.87;;
33327;SDS011;19692;52.998;9.116;2023-02-15T12:12:19;21.67;;;19.37;;
33327;SDS011;19692;52.998;9.116;2023-02-15T12:15:12;22.87;;;19.37;;
33327;SDS011;19692;52.998;9.116;2023-02-15T12:17:50;21.10;;;18.73;;
33327;SDS011;19692;52.998;9.116;2023-02-15T12:22:49;25.10;;;20.80;;
33327;SDS011;19692;52.998;9.116;2023-02-15T12:25:20;23.50;;;20.97;;
33327;SDS011;19692;52.998;9.116;2023-02-15T12:27:51;22.40;;;20.00;;
33327;SDS011;19692;52.998;9.116;2023-02-15T12:33:02;22.77;;;19.80;;
33327;SDS011;19692;52.998;9.116;2023-02-15T12:35:59;22.20;;;19.70;;
33327;SDS011;19692;52.998;9.116;2023-02-15T12:38:43;23.97;;;21.10;;
33327;SDS011;19692;52.998;9.116;2023-02-15T12:41:38;23.27;;;19.77;;
33327;SDS011;19692;52.998;9.116;2023-02-15T12:46:55;22.80;;;20.33;;
33327;SDS011;19692;52.998;9.116;2023-02-15T12:49:23;26.17;;;21.17;;
33327;SDS011;19692;52.998;9.116;2023-02-15T12:51:53;24.07;;;20.43;;
33327;SDS011;19692;52.998;9.116;2023-02-15T12:54:31;25.50;;;21.17;;
33327;SDS011;19692;52.998;9.116;2023-02-15T12:59:52;22.90;;;19.73;;
33327;SDS011;19692;52.998;9.116;2023-02-15T13:05:07;25.67;;;20.57;;
33327;SDS011;19692;52.998;9.116;2023-02-15T13:08:11;24.83;;;20.67;;
33327;SDS011;19692;52.998;9.116;2023-02-15T13:10:56;23.67;;;19.80;;
33327;SDS011;19692;52.998;9.116;2023-02-15T13:13:31;23.20;;;20.43;;
33327;SDS011;19692;52.998;9.116;2023-02-15T13:16:00;23.60;;;20.40;;
33327;SDS011;19692;52.998;9.116;2023-02-15T13:19:05;26.23;;;20.43;;
33327;SDS011;19692;52.998;9.116;2023-02-15T13:21:25;29.30;;;22.10;;
33327;SDS011;19692;52.998;9.116;2023-02-15T13:24:02;25.43;;;20.00;;
33327;SDS011;19692;52.998;9.116;2023-02-15T13:26:42;26.23;;;20.97;;
33327;SDS011;19692;52.998;9.116;2023-02-15T13:29:15;25.10;;;20.07;;
33327;SDS011;19692;52.998;9.116;2023-02-15T13:31:47;25.30;;;20.57;;
33327;SDS011;19692;52.998;9.116;2023-02-15T13:34:16;23.67;;;18.90;;
33327;SDS011;19692;52.998;9.116;2023-02-15T13:36:50;24.27;;;19.83;;
33327;SDS011;19692;52.998;9.116;2023-02-15T13:39:47;28.70;;;19.33;;
33327;SDS011;19692;52.998;9.116;2023-02-15T13:53:42;23.20;;;18.83;;
33327;SDS011;19692;52.998;9.116;2023-02-15T13:59:44;25.37;;;18.70;;
33327;SDS011;19692;52.998;9.116;2023-02-15T14:05:15;24.33;;;18.73;;
33327;SDS011;19692;52.998;9.116;2023-02-15T14:08:13;25.20;;;19.73;;
33327;SDS011;19692;52.998;9.116;2023-02-15T14:11:43;25.10;;;19.20;;
33327;SDS011;19692;52.998;9.116;2023-02-15T14:20:34;24.07;;;18.67;;
33327;SDS011;19692;52.998;9.116;2023-02-15T14:31:08;25.33;;;19.13;;
33327;SDS011;19692;52.998;9.116;2023-02-15T14:33:40;24.53;;;18.20;;
33327;SDS011;19692;52.998;9.116;2023-02-15T14:36:19;22.57;;;18.33;;
33327;SDS011;19692;52.998;9.116;2023-02-15T14:45:35;25.23;;;19.60;;
33327;SDS011;19692;52.998;9.116;2023-02-15T14:48:25;29.43;;;20.07;;
33327;SDS011;19692;52.998;9.116;2023-02-15T14:51:04;26.03;;;20.17;;
33327;SDS011;19692;52.998;9.116;2023-02-15T14:58:38;24.40;;;19.43;;
33327;SDS011;19692;52.998;9.116;2023-02-15T15:01:26;24.80;;;19.97;;
33327;SDS011;19692;52.998;9.116;2023-02-15T15:03:56;29.17;;;21.43;;
33327;SDS011;19692;52.998;9.116;2023-02-15T15:06:30;29.20;;;23.23;;
33327;SDS011;19692;52.998;9.116;2023-02-15T15:09:00;32.63;;;24.10;;
33327;SDS011;19692;52.998;9.116;2023-02-15T15:11:48;28.17;;;21.47;;
33327;SDS011;19692;52.998;9.116;2023-02-15T15:16:57;29.97;;;21.57;;
33327;SDS011;19692;52.998;9.116;2023-02-15T15:19:56;26.63;;;20.73;;
33327;SDS011;19692;52.998;9.116;2023-02-15T15:22:24;24.67;;;20.70;;
33327;SDS011;19692;52.998;9.116;2023-02-15T15:28:02;25.10;;;20.40;;
33327;SDS011;19692;52.998;9.116;2023-02-15T15:35:36;27.47;;;21.83;;
33327;SDS011;19692;52.998;9.116;2023-02-15T15:41:44;29.27;;;21.23;;
33327;SDS011;19692;52.998;9.116;2023-02-15T15:50:52;25.73;;;19.67;;
33327;SDS011;19692;52.998;9.116;2023-02-15T15:53:23;28.40;;;20.80;;
33327;SDS011;19692;52.998;9.116;2023-02-15T15:55:52;25.97;;;20.77;;
33327;SDS011;19692;52.998;9.116;2023-02-15T15:58:25;27.73;;;19.00;;
33327;SDS011;19692;52.998;9.116;2023-02-15T16:00:52;26.27;;;19.43;;
33327;SDS011;19692;52.998;9.116;2023-02-15T16:03:25;26.07;;;20.23;;
33327;SDS011;19692;52.998;9.116;2023-02-15T16:05:52;27.10;;;20.70;;
33327;SDS011;19692;52.998;9.116;2023-02-15T16:11:19;28.93;;;19.70;;
33327;SDS011;19692;52.998;9.116;2023-02-15T16:13:54;24.30;;;19.47;;
33327;SDS011;19692;52.998;9.116;2023-02-15T16:16:21;26.03;;;19.97;;
33327;SDS011;19692;52.998;9.116;2023-02-15T16:18:53;25.37;;;18.67;;
33327;SDS011;19692;52.998;9.116;2023-02-15T16:21:28;25.20;;;20.50;;
33327;SDS011;19692;52.998;9.116;2023-02-15T16:24:12;27.10;;;20.93;;
33327;SDS011;19692;52.998;9.116;2023-02-15T16:27:18;25.43;;;19.23;;
33327;SDS011;19692;52.998;9.116;2023-02-15T16:35:55;29.20;;;19.70;;
33327;SDS011;19692;52.998;9.116;2023-02-15T16:38:30;25.50;;;19.27;;
33327;SDS011;19692;52.998;9.116;2023-02-15T16:41:06;25.43;;;19.77;;
33327;SDS011;19692;52.998;9.116;2023-02-15T16:43:38;26.17;;;19.40;;
33327;SDS011;19692;52.998;9.116;2023-02-15T16:46:15;29.57;;;19.90;;
33327;SDS011;19692;52.998;9.116;2023-02-15T16:48:48;30.90;;;19.50;;
33327;SDS011;19692;52.998;9.116;2023-02-15T16:51:23;27.07;;;20.33;;
33327;SDS011;19692;52.998;9.116;2023-02-15T16:53:53;26.60;;;21.33;;
33327;SDS011;19692;52.998;9.116;2023-02-15T16:56:24;28.00;;;20.80;;
33327;SDS011;19692;52.998;9.116;2023-02-15T16:59:00;26.53;;;19.90;;
33327;SDS011;19692;52.998;9.116;2023-02-15T17:01:29;27.83;;;20.00;;
33327;SDS011;19692;52.998;9.116;2023-02-15T17:04:10;27.23;;;19.63;;
33327;SDS011;19692;52.998;9.116;2023-02-15T17:07:14;24.77;;;19.77;;
33327;SDS011;19692;52.998;9.116;2023-02-15T17:15:33;28.40;;;20.07;;
33327;SDS011;19692;52.998;9.116;2023-02-15T17:18:11;31.17;;;21.90;;
33327;SDS011;19692;52.998;9.116;2023-02-15T17:20:44;31.90;;;25.17;;
33327;SDS011;19692;52.998;9.116;2023-02-15T17:23:21;30.30;;;24.20;;
33327;SDS011;19692;52.998;9.116;2023-02-15T17:25:48;28.97;;;22.27;;
33327;SDS011;19692;52.998;9.116;2023-02-15T17:28:18;32.23;;;23.97;;
33327;SDS011;19692;52.998;9.116;2023-02-15T17:30:47;30.57;;;23.87;;
33327;SDS011;19692;52.998;9.116;2023-02-15T17:33:26;28.87;;;22.17;;
33327;SDS011;19692;52.998;9.116;2023-02-15T17:36:15;31.60;;;22.20;;
33327;SDS011;19692;52.998;9.116;2023-02-15T17:39:01;34.77;;;24.07;;
33327;SDS011;19692;52.998;9.116;2023-02-15T17:41:32;31.30;;;24.37;;
33327;SDS011;19692;52.998;9.116;2023-02-15T17:44:04;32.53;;;22.70;;
33327;SDS011;19692;52.998;9.116;2023-02-15T17:46:34;30.93;;;22.53;;
33327;SDS011;19692;52.998;9.116;2023-02-15T17:49:04;27.20;;;21.13;;